Kerby, Oregon
Current Conditions -  °F | °C
As of 10:56 AM on Sunday 23 Nov 2014 (Local Time) from KSXT Reporting Station
Scattered Clouds Scattered Clouds  
Wind Chill: 33°   Ceiling: Unl
Heat Index: 37°   Visibility: 10mi
Dew Point: 37°   Wind: 5mph
Humidity: 100%   Direction: 150°SSE
Pressure: 30.34"   Gusts: NA
Location:  42.19°N, 123.65°W
Report Text: KSXT 231856Z AUTO 15004KT 10SM SCT001 03/03 A3034 RMK AO2 SLP291 T00280028 $
Loading
Personal Weather Stations






























Interactive Weather Map New forecast layout! Learn more

10-Day Weather Forecast

Advertisements
Track Severe Weather on mobile